Time;durP1;ratioP1;P1;durP2;ratioP2;P2;SDS_P1;SDS_P2;PMS_P1;PMS_P2;Temp;Humidity;BMP_temperature;BMP_pressure;BME280_temperature;BME280_humidity;BME280_pressure;Samples;Min_cycle;Max_cycle;Signal;HPM_P1;HPM_P2
2024/01/24 00:01:15;;;;;;;2.78;1.33;;;14.20;90.10;;;;;;5023717;28;20493;-69
2024/01/24 00:03:41;;;;;;;2.08;1.38;;;14.30;90.10;;;;;;5031130;28;20037;-69
2024/01/24 00:06:06;;;;;;;1.25;1.15;;;14.30;90.00;;;;;;5031703;28;20079;-69
2024/01/24 00:08:33;;;;;;;3.33;1.73;;;14.30;89.90;;;;;;5043181;28;20033;-69
2024/01/24 00:11:01;;;;;;;1.27;0.90;;;14.30;89.90;;;;;;5040690;28;20025;-69
2024/01/24 00:13:27;;;;;;;2.20;1.02;;;14.30;89.90;;;;;;5021729;28;20905;-69
2024/01/24 00:15:53;;;;;;;2.65;1.20;;;14.40;89.80;;;;;;5041351;28;20018;-70
2024/01/24 00:18:19;;;;;;;1.40;1.10;;;14.40;89.70;;;;;;5041117;28;20136;-69
2024/01/24 00:20:44;;;;;;;3.30;1.95;;;14.40;89.60;;;;;;5035482;28;20120;-69
2024/01/24 00:23:10;;;;;;;1.33;0.80;;;14.50;89.50;;;;;;5042655;28;20045;-69
2024/01/24 00:25:37;;;;;;;1.48;1.20;;;14.40;89.30;;;;;;5036205;28;20030;-69
2024/01/24 00:28:03;;;;;;;1.10;1.00;;;14.50;89.30;;;;;;5036446;28;20128;-69
2024/01/24 00:30:29;;;;;;;0.63;0.60;;;14.50;89.10;;;;;;5067117;28;20041;-69
2024/01/24 00:32:54;;;;;;;1.13;0.63;;;14.50;88.90;;;;;;5034794;28;20496;-69
2024/01/24 00:35:20;;;;;;;2.63;0.70;;;14.60;88.90;;;;;;5035215;28;20030;-69
2024/01/24 00:37:46;;;;;;;1.33;0.70;;;14.60;88.80;;;;;;5035454;28;20451;-69
2024/01/24 00:40:12;;;;;;;0.80;0.70;;;14.60;88.60;;;;;;5035204;28;20026;-69
2024/01/24 00:42:42;;;;;;;2.50;0.90;;;14.60;88.40;;;;;;5033908;28;20556;-69
2024/01/24 00:45:11;;;;;;;2.75;0.90;;;14.60;88.30;;;;;;5033907;28;20049;-69
2024/01/24 00:47:37;;;;;;;0.68;0.68;;;14.60;88.00;;;;;;5035002;28;20156;-69
2024/01/24 00:50:04;;;;;;;1.08;0.55;;;14.60;88.00;;;;;;5033514;28;20124;-69
2024/01/24 00:52:30;;;;;;;0.88;0.52;;;14.70;87.90;;;;;;5033581;28;20033;-69
2024/01/24 00:54:56;;;;;;;0.85;0.85;;;14.70;87.90;;;;;;5032797;28;20080;-69
2024/01/24 00:57:22;;;;;;;2.25;0.95;;;14.70;87.80;;;;;;5033578;28;20022;-69
2024/01/24 00:59:47;;;;;;;1.40;0.85;;;14.70;87.80;;;;;;5034972;28;20033;-69
2024/01/24 01:02:13;;;;;;;0.60;0.60;;;14.70;87.80;;;;;;5033239;28;20458;-69
2024/01/24 01:04:39;;;;;;;0.50;0.50;;;14.70;87.80;;;;;;5033506;28;20026;-69
2024/01/24 01:07:05;;;;;;;0.43;0.40;;;14.70;87.80;;;;;;5034582;28;20033;-69
2024/01/24 01:09:31;;;;;;;1.58;1.02;;;14.70;87.90;;;;;;5033977;28;20087;-69
2024/01/24 01:11:57;;;;;;;0.65;0.65;;;14.70;88.00;;;;;;5034463;28;20500;-69
2024/01/24 01:14:23;;;;;;;0.68;0.50;;;14.70;88.00;;;;;;5031995;28;20060;-70
2024/01/24 01:16:49;;;;;;;0.88;0.68;;;14.70;88.00;;;;;;5034845;28;20069;-69
2024/01/24 01:19:15;;;;;;;0.68;0.40;;;14.60;88.30;;;;;;5047209;28;20067;-69
2024/01/24 01:21:41;;;;;;;1.35;0.55;;;14.60;88.60;;;;;;5034112;28;20492;-69
2024/01/24 01:24:09;;;;;;;1.67;0.60;;;14.60;88.80;;;;;;5030174;28;20050;-69
2024/01/24 01:26:34;;;;;;;0.40;0.40;;;14.50;89.20;;;;;;5033978;28;20041;-68
2024/01/24 01:29:00;;;;;;;2.45;0.88;;;14.50;89.60;;;;;;5032696;28;20025;-68
2024/01/24 01:31:26;;;;;;;0.60;0.40;;;14.40;90.00;;;;;;5031493;28;20116;-68
2024/01/24 01:33:52;;;;;;;0.82;0.40;;;14.30;90.10;;;;;;5032627;28;20036;-68
2024/01/24 01:36:17;;;;;;;0.40;0.40;;;14.30;90.40;;;;;;5031882;28;20400;-69
2024/01/24 01:38:43;;;;;;;2.30;0.50;;;14.20;90.40;;;;;;5037309;28;20239;-68
2024/01/24 01:41:09;;;;;;;0.65;0.63;;;14.20;90.70;;;;;;5037600;28;20029;-68
2024/01/24 01:43:35;;;;;;;0.93;0.30;;;14.10;90.90;;;;;;5029420;28;20444;-69
2024/01/24 01:46:17;;;;;;;0.50;0.50;;;14.10;91.00;;;;;;5032919;28;20469;-69
2024/01/24 01:48:43;;;;;;;0.43;0.38;;;14.00;91.10;;;;;;5033357;28;20475;-69
2024/01/24 01:51:09;;;;;;;0.50;0.50;;;14.00;91.30;;;;;;5032495;28;20064;-69
2024/01/24 01:53:38;;;;;;;0.40;0.40;;;13.90;91.40;;;;;;5032524;28;20223;-69
2024/01/24 01:56:14;;;;;;;0.40;0.40;;;13.90;91.40;;;;;;5037284;28;20051;-68
2024/01/24 01:58:41;;;;;;;0.45;0.45;;;13.90;91.30;;;;;;5037588;28;20028;-68
2024/01/24 02:01:07;;;;;;;0.40;0.40;;;13.90;91.60;;;;;;5013250;28;20088;-68
2024/01/24 02:03:33;;;;;;;1.67;0.43;;;13.90;91.70;;;;;;5042429;28;20029;-68
2024/01/24 02:06:00;;;;;;;0.73;0.43;;;13.90;91.70;;;;;;5034993;28;20037;-69
2024/01/24 02:08:26;;;;;;;0.40;0.40;;;13.90;91.70;;;;;;5031962;28;20037;-69
2024/01/24 02:10:52;;;;;;;1.08;0.38;;;13.90;91.70;;;;;;5030751;28;20030;-69
2024/01/24 02:13:20;;;;;;;0.30;0.30;;;13.90;91.80;;;;;;5030739;28;20060;-69
2024/01/24 02:15:45;;;;;;;0.57;0.52;;;13.90;91.80;;;;;;5030989;28;20021;-69
2024/01/24 02:18:11;;;;;;;0.40;0.40;;;13.80;91.80;;;;;;5038424;28;20033;-69
2024/01/24 02:20:37;;;;;;;0.50;0.45;;;13.80;91.90;;;;;;5036077;28;20040;-69
2024/01/24 02:23:03;;;;;;;1.02;0.85;;;13.80;91.90;;;;;;5031744;28;20050;-68
2024/01/24 02:25:29;;;;;;;3.75;0.70;;;13.80;92.00;;;;;;5032000;28;20099;-69
2024/01/24 02:27:55;;;;;;;0.82;0.50;;;13.80;92.00;;;;;;5032682;28;20017;-69
2024/01/24 02:30:20;;;;;;;0.45;0.45;;;13.80;92.00;;;;;;5032448;28;20104;-69
2024/01/24 02:32:46;;;;;;;0.50;0.50;;;13.80;92.10;;;;;;5032732;28;20041;-69
2024/01/24 02:35:12;;;;;;;0.50;0.50;;;13.80;92.10;;;;;;5030002;28;20021;-69
2024/01/24 02:37:38;;;;;;;0.40;0.40;;;13.80;92.00;;;;;;5034738;28;20642;-68
2024/01/24 02:40:06;;;;;;;1.23;0.77;;;13.80;92.10;;;;;;5031846;28;20111;-68
2024/01/24 02:42:32;;;;;;;0.38;0.38;;;13.80;92.10;;;;;;5061789;28;20060;-68
2024/01/24 02:44:57;;;;;;;5.18;0.70;;;13.80;92.10;;;;;;5029214;28;20051;-69
2024/01/24 02:47:23;;;;;;;0.35;0.35;;;13.80;92.10;;;;;;5035210;28;20730;-68
2024/01/24 02:49:49;;;;;;;0.60;0.55;;;13.80;92.00;;;;;;5031501;28;20492;-68
2024/01/24 02:52:15;;;;;;;1.17;0.77;;;13.90;91.90;;;;;;5033682;28;20033;-69
2024/01/24 02:54:43;;;;;;;0.28;0.28;;;13.90;91.90;;;;;;5031444;28;20075;-69
2024/01/24 02:57:09;;;;;;;0.30;0.30;;;13.90;91.80;;;;;;5031510;28;20120;-69
2024/01/24 02:59:35;;;;;;;0.98;0.63;;;13.90;91.80;;;;;;5032223;28;20037;-69
2024/01/24 03:02:01;;;;;;;0.30;0.30;;;13.90;91.70;;;;;;5035204;28;20025;-69
2024/01/24 03:04:27;;;;;;;2.80;0.40;;;14.00;91.70;;;;;;5030638;28;20017;-69
2024/01/24 03:06:55;;;;;;;0.30;0.30;;;14.00;91.50;;;;;;5032142;28;20029;-69
2024/01/24 03:09:20;;;;;;;0.50;0.40;;;14.00;91.40;;;;;;5030082;28;20109;-69
2024/01/24 03:11:46;;;;;;;1.17;0.25;;;14.00;91.30;;;;;;5024861;28;20112;-69
2024/01/24 03:14:12;;;;;;;0.40;0.40;;;14.10;91.40;;;;;;5067816;28;20056;-69
2024/01/24 03:16:38;;;;;;;0.55;0.50;;;14.10;91.10;;;;;;5034348;28;20064;-69
2024/01/24 03:19:05;;;;;;;1.08;0.68;;;14.00;91.00;;;;;;5031083;28;20128;-69
2024/01/24 03:21:31;;;;;;;0.28;0.28;;;14.00;90.90;;;;;;5034955;28;20033;-69
2024/01/24 03:23:56;;;;;;;0.60;0.40;;;14.00;90.90;;;;;;5035282;28;20050;-69
2024/01/24 03:26:22;;;;;;;0.30;0.30;;;14.00;90.80;;;;;;5031408;28;20029;-69
2024/01/24 03:28:48;;;;;;;0.80;0.50;;;14.00;90.70;;;;;;5031054;28;20025;-69
2024/01/24 03:31:14;;;;;;;2.95;0.95;;;14.10;90.50;;;;;;5031748;28;20428;-69
2024/01/24 03:33:39;;;;;;;1.10;0.70;;;14.10;90.40;;;;;;5038912;28;20053;-69
2024/01/24 03:36:05;;;;;;;0.50;0.43;;;14.00;90.30;;;;;;5031175;28;20037;-69
2024/01/24 03:38:31;;;;;;;2.20;0.55;;;14.10;90.10;;;;;;5038571;28;20029;-69
2024/01/24 03:40:56;;;;;;;0.55;0.45;;;14.00;89.10;;;;;;5030708;28;20075;-69
2024/01/24 03:43:22;;;;;;;1.52;0.75;;;14.00;88.90;;;;;;5030759;28;20485;-69
2024/01/24 03:45:48;;;;;;;3.13;0.65;;;14.00;88.50;;;;;;5032891;28;20212;-69
2024/01/24 03:48:14;;;;;;;2.95;0.70;;;14.00;88.20;;;;;;5032094;28;20100;-69
2024/01/24 03:50:40;;;;;;;1.65;1.00;;;14.00;88.00;;;;;;5032734;28;20037;-69
2024/01/24 03:53:05;;;;;;;3.03;0.80;;;14.00;87.60;;;;;;5029831;28;20037;-69
2024/01/24 03:55:31;;;;;;;5.35;0.77;;;14.00;87.30;;;;;;5035684;28;20585;-68
2024/01/24 03:57:57;;;;;;;3.13;0.95;;;14.00;86.80;;;;;;5031111;28;20029;-68
2024/01/24 04:00:24;;;;;;;1.80;0.57;;;14.00;86.80;;;;;;5035597;28;20028;-69
2024/01/24 04:02:50;;;;;;;1.38;1.00;;;14.00;86.20;;;;;;5028458;28;20037;-68
2024/01/24 04:05:16;;;;;;;1.13;0.80;;;14.00;86.00;;;;;;5030772;28;20025;-68
2024/01/24 04:07:42;;;;;;;5.47;0.98;;;14.00;86.10;;;;;;5030442;28;20032;-68
2024/01/24 04:10:08;;;;;;;0.82;0.50;;;14.00;86.00;;;;;;5028651;28;20026;-69
2024/01/24 04:12:34;;;;;;;2.38;0.75;;;14.00;86.10;;;;;;5028412;28;20091;-68
2024/01/24 04:15:00;;;;;;;1.08;0.80;;;13.90;86.10;;;;;;5037368;28;20029;-68
2024/01/24 04:17:26;;;;;;;1.75;1.20;;;13.90;85.90;;;;;;5030591;28;20489;-68
2024/01/24 04:19:52;;;;;;;1.00;0.60;;;13.90;85.70;;;;;;5027682;28;20034;-68
2024/01/24 04:22:17;;;;;;;1.45;0.82;;;13.90;85.10;;;;;;5028096;28;20045;-67
2024/01/24 04:24:44;;;;;;;6.07;1.50;;;13.90;85.10;;;;;;5029521;28;20096;-68
2024/01/24 04:27:10;;;;;;;3.08;1.23;;;13.80;85.10;;;;;;5030638;28;20543;-68
2024/01/24 04:29:35;;;;;;;7.45;2.22;;;13.80;84.70;;;;;;5030070;28;20021;-69
2024/01/24 04:32:01;;;;;;;4.20;1.33;;;13.70;84.40;;;;;;5030175;28;20038;-69
2024/01/24 04:34:27;;;;;;;6.30;2.28;;;13.70;83.90;;;;;;5027255;28;20045;-68
2024/01/24 04:36:55;;;;;;;2.08;0.95;;;13.70;83.60;;;;;;5031047;28;20033;-68
2024/01/24 04:39:21;;;;;;;9.18;1.98;;;13.70;83.60;;;;;;5029431;28;20104;-68
2024/01/24 04:41:48;;;;;;;10.75;1.95;;;13.60;83.80;;;;;;5028734;28;20511;-68
2024/01/24 04:44:14;;;;;;;7.68;1.85;;;13.60;83.60;;;;;;5027741;28;20492;-69
2024/01/24 04:46:40;;;;;;;2.95;1.77;;;13.60;83.20;;;;;;5031045;28;20116;-68
2024/01/24 04:49:07;;;;;;;6.32;1.65;;;13.50;83.10;;;;;;5033554;28;20171;-68
2024/01/24 04:51:33;;;;;;;2.95;1.42;;;13.50;83.20;;;;;;5034044;28;20033;-68
2024/01/24 04:54:00;;;;;;;6.20;2.10;;;13.50;83.00;;;;;;5032968;28;20909;-68
2024/01/24 04:56:27;;;;;;;10.75;2.35;;;13.60;83.10;;;;;;5028656;28;20041;-68
2024/01/24 04:58:53;;;;;;;7.95;1.88;;;13.60;82.80;;;;;;5031312;28;20033;-69
2024/01/24 05:01:18;;;;;;;6.85;2.20;;;13.60;82.50;;;;;;5031104;28;20488;-68
2024/01/24 05:03:44;;;;;;;15.07;2.15;;;13.50;82.40;;;;;;5033232;28;20037;-69
2024/01/24 05:06:11;;;;;;;15.18;1.75;;;13.50;82.20;;;;;;5033044;28;20021;-68
2024/01/24 05:08:37;;;;;;;5.88;2.38;;;13.50;82.30;;;;;;5036478;28;20389;-69
2024/01/24 05:11:04;;;;;;;6.25;2.53;;;13.50;82.10;;;;;;5038043;28;20017;-69
2024/01/24 05:13:30;;;;;;;7.50;1.50;;;13.50;82.00;;;;;;5036958;28;20402;-69
2024/01/24 05:15:56;;;;;;;4.60;2.60;;;13.50;82.20;;;;;;5034918;28;20109;-68
2024/01/24 05:18:22;;;;;;;6.53;2.03;;;13.50;82.40;;;;;;5031186;28;20096;-69
2024/01/24 05:20:47;;;;;;;14.05;2.55;;;13.50;81.70;;;;;;5036339;28;20029;-69
2024/01/24 05:23:13;;;;;;;5.13;1.90;;;13.40;81.50;;;;;;5039450;28;20107;-68
2024/01/24 05:25:42;;;;;;;8.73;2.90;;;13.40;81.20;;;;;;5035356;28;20076;-69
2024/01/24 05:28:11;;;;;;;11.18;2.80;;;13.40;80.60;;;;;;5043763;28;20032;-69
2024/01/24 05:30:37;;;;;;;6.53;3.17;;;13.40;80.50;;;;;;5030668;28;20413;-69
2024/01/24 05:33:03;;;;;;;8.50;2.25;;;13.30;80.20;;;;;;5037044;28;20025;-69
2024/01/24 05:35:29;;;;;;;9.88;3.10;;;13.30;80.00;;;;;;5029696;28;20043;-69
2024/01/24 05:37:54;;;;;;;17.33;2.70;;;13.40;79.70;;;;;;5042933;28;20075;-69
2024/01/24 05:40:20;;;;;;;11.75;2.88;;;13.30;79.60;;;;;;5032010;28;20025;-68
2024/01/24 05:42:46;;;;;;;12.65;4.22;;;13.30;79.30;;;;;;5041894;28;20033;-69
2024/01/24 05:45:12;;;;;;;6.28;2.33;;;13.30;79.60;;;;;;5034482;28;20021;-68
2024/01/24 05:47:38;;;;;;;13.80;3.05;;;13.30;79.70;;;;;;5033820;28;20040;-68
2024/01/24 05:50:05;;;;;;;14.93;3.13;;;13.30;79.80;;;;;;5034037;28;20029;-68
2024/01/24 05:52:30;;;;;;;5.00;2.33;;;13.20;78.80;;;;;;5034079;28;20066;-69
2024/01/24 05:54:56;;;;;;;8.57;2.30;;;13.30;78.90;;;;;;5031818;28;20029;-69
2024/01/24 05:57:22;;;;;;;11.82;2.97;;;13.30;78.40;;;;;;5034063;28;20087;-68
2024/01/24 05:59:48;;;;;;;9.07;2.70;;;13.20;78.40;;;;;;5041016;28;20115;-68
2024/01/24 06:02:13;;;;;;;12.98;2.40;;;13.30;78.10;;;;;;5041430;28;20408;-69
2024/01/24 06:04:39;;;;;;;7.13;3.22;;;13.30;78.30;;;;;;5044859;28;20078;-68
2024/01/24 06:07:06;;;;;;;5.40;2.15;;;13.20;77.60;;;;;;5039182;28;20036;-69
2024/01/24 06:09:32;;;;;;;6.57;2.35;;;13.20;77.60;;;;;;5067702;28;20026;-69
2024/01/24 06:12:01;;;;;;;5.60;2.25;;;13.20;78.20;;;;;;5033032;28;20464;-69
2024/01/24 06:14:26;;;;;;;8.80;2.55;;;13.30;77.70;;;;;;5034207;28;20044;-69
2024/01/24 06:16:52;;;;;;;11.55;2.72;;;13.30;77.70;;;;;;5026438;28;20033;-69
2024/01/24 06:19:18;;;;;;;10.52;3.05;;;13.20;77.20;;;;;;5070989;28;20144;-70
2024/01/24 06:21:43;;;;;;;14.27;3.25;;;13.30;77.40;;;;;;5041267;28;20035;-69
2024/01/24 06:24:09;;;;;;;14.80;2.28;;;13.30;77.40;;;;;;5072996;28;20052;-69
2024/01/24 06:26:35;;;;;;;6.93;2.40;;;13.20;76.30;;;;;;5025152;28;20059;-68
2024/01/24 06:29:01;;;;;;;16.85;2.85;;;13.20;76.30;;;;;;5048269;28;20352;-69
2024/01/24 06:31:27;;;;;;;7.28;2.03;;;13.20;76.00;;;;;;5033930;28;20086;-69
2024/01/24 06:33:53;;;;;;;9.23;3.47;;;13.20;76.10;;;;;;5024099;28;20430;-69
2024/01/24 06:36:20;;;;;;;7.75;2.97;;;13.20;76.30;;;;;;5028344;28;20460;-69
2024/01/24 06:38:46;;;;;;;8.15;2.63;;;13.10;76.00;;;;;;5027846;28;20087;-69
2024/01/24 06:41:13;;;;;;;20.75;4.55;;;13.10;76.20;;;;;;5032559;28;20021;-69
2024/01/24 06:43:41;;;;;;;8.80;3.30;;;13.10;76.60;;;;;;5036240;28;20061;-69
2024/01/24 06:46:08;;;;;;;11.00;3.17;;;13.00;76.90;;;;;;5035194;28;20040;-69
2024/01/24 06:48:34;;;;;;;10.55;2.47;;;13.00;77.40;;;;;;5039356;28;20420;-69
2024/01/24 06:51:00;;;;;;;12.55;3.15;;;12.90;77.50;;;;;;5033346;28;20079;-69
2024/01/24 06:53:26;;;;;;;16.17;4.28;;;12.90;77.60;;;;;;5031632;28;20052;-69
2024/01/24 06:55:52;;;;;;;16.80;3.20;;;12.80;77.60;;;;;;5031881;28;20473;-69
2024/01/24 06:58:18;;;;;;;11.60;2.70;;;12.80;77.60;;;;;;5032625;28;20066;-69
2024/01/24 07:00:43;;;;;;;13.48;3.17;;;12.70;77.40;;;;;;5031585;28;20036;-69
2024/01/24 07:03:09;;;;;;;13.25;3.35;;;12.70;77.60;;;;;;5032516;28;20033;-69
2024/01/24 07:05:35;;;;;;;13.90;3.70;;;12.70;77.30;;;;;;5031211;28;20103;-69
2024/01/24 07:08:01;;;;;;;13.63;3.03;;;12.70;77.30;;;;;;5032653;28;20038;-69
2024/01/24 07:10:26;;;;;;;8.88;3.47;;;12.70;77.20;;;;;;5030142;28;20057;-70
2024/01/24 07:12:52;;;;;;;11.13;2.65;;;12.60;76.70;;;;;;5037990;28;20041;-67
2024/01/24 07:15:18;;;;;;;22.83;4.65;;;12.60;76.30;;;;;;5033497;28;20034;-69
2024/01/24 07:17:45;;;;;;;9.70;2.50;;;12.50;75.70;;;;;;5026055;28;20037;-68
2024/01/24 07:20:12;;;;;;;10.25;2.22;;;12.50;75.90;;;;;;5022748;28;20079;-70
2024/01/24 07:22:38;;;;;;;11.85;2.97;;;12.50;75.50;;;;;;5069490;28;20501;-69
2024/01/24 07:25:06;;;;;;;11.48;2.97;;;12.40;75.10;;;;;;5030171;28;20136;-69
2024/01/24 07:27:33;;;;;;;12.65;2.92;;;12.40;75.40;;;;;;5030501;28;20080;-69
2024/01/24 07:29:58;;;;;;;13.52;3.40;;;12.40;75.20;;;;;;5038846;28;20075;-70
2024/01/24 07:32:24;;;;;;;9.73;3.05;;;12.40;75.10;;;;;;5031748;28;20518;-68
2024/01/24 07:34:50;;;;;;;9.38;3.00;;;12.40;74.90;;;;;;5030604;28;20648;-72
2024/01/24 07:37:15;;;;;;;8.30;3.05;;;12.30;74.70;;;;;;5030151;28;20037;-69
2024/01/24 07:39:41;;;;;;;8.32;2.65;;;12.30;74.90;;;;;;5036093;28;20036;-69
2024/01/24 07:42:07;;;;;;;7.85;2.88;;;12.30;75.00;;;;;;5031783;28;20034;-69
2024/01/24 07:44:33;;;;;;;8.60;4.43;;;12.30;74.80;;;;;;5033822;28;20402;-68
2024/01/24 07:46:59;;;;;;;5.28;2.13;;;12.30;74.40;;;;;;5039761;28;20048;-73
2024/01/24 07:49:24;;;;;;;7.93;2.65;;;12.20;74.50;;;;;;5027925;28;20481;-70
2024/01/24 07:51:50;;;;;;;11.98;3.00;;;12.20;74.40;;;;;;5018716;28;20036;-70
2024/01/24 07:54:19;;;;;;;13.20;4.00;;;12.10;74.20;;;;;;5028513;28;20400;-71
2024/01/24 07:56:45;;;;;;;5.05;2.70;;;12.20;74.20;;;;;;5028376;28;20424;-71
2024/01/24 07:59:13;;;;;;;15.85;2.92;;;12.10;73.90;;;;;;5027742;28;20037;-70
2024/01/24 08:01:39;;;;;;;19.63;4.38;;;12.10;74.00;;;;;;5031005;28;20064;-69
2024/01/24 08:04:05;;;;;;;18.63;5.47;;;12.10;73.60;;;;;;5029316;28;20115;-69
2024/01/24 08:06:30;;;;;;;10.45;2.60;;;12.10;73.80;;;;;;5041267;28;20085;-69
2024/01/24 08:08:56;;;;;;;14.48;5.50;;;12.10;73.90;;;;;;5029939;28;20103;-69
2024/01/24 08:11:23;;;;;;;15.20;4.72;;;12.00;73.70;;;;;;5035169;28;20030;-69
2024/01/24 08:13:48;;;;;;;16.88;3.67;;;12.00;73.50;;;;;;5041416;28;20423;-69
2024/01/24 08:16:17;;;;;;;15.70;3.35;;;12.00;73.60;;;;;;5029829;28;20026;-69
2024/01/24 08:18:43;;;;;;;12.80;4.28;;;12.10;73.60;;;;;;5035163;28;20477;-68
2024/01/24 08:21:09;;;;;;;12.32;3.92;;;12.10;73.30;;;;;;5037297;28;20028;-69
2024/01/24 08:23:35;;;;;;;15.52;2.95;;;12.10;73.20;;;;;;5028088;28;20111;-69
2024/01/24 08:26:00;;;;;;;10.00;3.03;;;12.10;72.60;;;;;;5028359;28;20030;-71
2024/01/24 08:28:26;;;;;;;11.57;2.88;;;12.10;72.60;;;;;;5032172;28;20468;-74
2024/01/24 08:30:51;;;;;;;13.77;3.83;;;12.10;72.50;;;;;;5026895;28;20436;-72
2024/01/24 08:33:17;;;;;;;8.27;3.42;;;12.20;72.20;;;;;;5022600;28;20698;-66
2024/01/24 08:35:43;;;;;;;12.50;3.28;;;12.20;71.80;;;;;;5039349;28;20025;-68
2024/01/24 08:38:09;;;;;;;7.45;2.42;;;12.20;71.70;;;;;;5034355;28;20061;-72
2024/01/24 08:40:35;;;;;;;15.55;3.35;;;12.20;71.50;;;;;;5033626;28;20473;-69
2024/01/24 08:43:01;;;;;;;20.67;4.10;;;12.20;71.20;;;;;;5034281;28;20170;-68
2024/01/24 08:45:26;;;;;;;6.20;2.33;;;12.30;71.00;;;;;;5035302;28;20493;-68
2024/01/24 08:47:52;;;;;;;5.45;2.20;;;12.30;70.60;;;;;;5036455;28;20025;-68
2024/01/24 08:50:18;;;;;;;12.88;3.17;;;12.30;70.70;;;;;;5042262;28;20060;-69
2024/01/24 08:52:43;;;;;;;8.25;2.72;;;12.30;70.60;;;;;;5035391;28;20061;-68
2024/01/24 08:55:11;;;;;;;17.60;3.25;;;12.30;70.70;;;;;;5037096;28;20021;-68
2024/01/24 08:57:37;;;;;;;9.98;2.40;;;12.40;70.60;;;;;;5038388;28;20411;-68
2024/01/24 09:00:03;;;;;;;15.52;3.40;;;12.40;70.20;;;;;;5043148;28;20104;-68
2024/01/24 09:02:29;;;;;;;15.02;3.22;;;12.40;70.20;;;;;;5036905;28;20107;-68
2024/01/24 09:04:55;;;;;;;9.52;3.00;;;12.50;70.30;;;;;;5043155;28;20492;-68
2024/01/24 09:07:20;;;;;;;7.85;1.98;;;12.50;69.90;;;;;;5037785;28;20099;-68
2024/01/24 09:09:49;;;;;;;12.02;3.13;;;12.50;70.10;;;;;;5034852;28;20025;-68
2024/01/24 09:12:15;;;;;;;10.68;3.00;;;12.50;70.00;;;;;;5040373;28;20082;-68
2024/01/24 09:14:40;;;;;;;8.90;3.00;;;12.50;70.00;;;;;;5039370;28;20285;-68
2024/01/24 09:17:09;;;;;;;16.33;3.17;;;12.50;70.10;;;;;;5039844;28;20033;-68
2024/01/24 09:19:35;;;;;;;9.27;3.20;;;12.60;69.70;;;;;;5032887;28;20148;-67
2024/01/24 09:22:01;;;;;;;9.88;3.38;;;12.60;69.80;;;;;;5040571;28;20422;-68
2024/01/24 09:24:27;;;;;;;11.15;2.60;;;12.60;69.50;;;;;;5038756;28;20032;-68
2024/01/24 09:26:52;;;;;;;13.77;3.28;;;12.60;69.80;;;;;;5043363;28;20037;-67
2024/01/24 09:29:18;;;;;;;6.18;2.80;;;12.60;69.40;;;;;;5041225;28;20033;-68
2024/01/24 09:31:45;;;;;;;9.65;3.20;;;12.60;69.60;;;;;;5039170;28;20411;-68
2024/01/24 09:34:17;;;;;;;11.25;2.85;;;12.70;69.40;;;;;;5034303;28;20102;-68
2024/01/24 09:36:43;;;;;;;15.95;3.88;;;12.70;69.50;;;;;;5037785;28;20142;-68
2024/01/24 09:39:09;;;;;;;15.05;3.60;;;12.70;69.30;;;;;;5033577;28;20060;-68
2024/01/24 09:41:43;;;;;;;12.70;2.97;;;12.70;69.30;;;;;;5023067;28;20353;-71
2024/01/24 09:44:11;;;;;;;17.55;2.72;;;12.80;69.20;;;;;;5025579;28;20025;-72
2024/01/24 09:46:39;;;;;;;13.35;3.40;;;12.80;68.90;;;;;;5024543;28;20480;-70
2024/01/24 09:49:06;;;;;;;7.28;2.83;;;12.80;69.00;;;;;;5024580;28;20029;-68
2024/01/24 09:51:33;;;;;;;16.10;4.53;;;12.90;69.00;;;;;;5035752;28;20025;-68
2024/01/24 09:54:07;;;;;;;11.50;1.85;;;12.90;68.70;;;;;;5035005;28;20137;-67
2024/01/24 09:56:36;;;;;;;13.98;3.72;;;12.90;68.90;;;;;;5035412;28;20464;-68
2024/01/24 09:59:07;;;;;;;16.35;4.05;;;12.90;68.10;;;;;;5038306;28;20418;-68
2024/01/24 10:01:38;;;;;;;21.70;3.30;;;13.00;68.50;;;;;;5037328;28;20033;-68
2024/01/24 10:04:05;;;;;;;15.23;3.53;;;13.10;68.50;;;;;;5043172;28;20100;-68
2024/01/24 10:06:32;;;;;;;8.48;3.22;;;13.20;68.10;;;;;;5043582;28;20561;-68
2024/01/24 10:08:58;;;;;;;8.10;2.75;;;13.20;67.50;;;;;;5040324;28;20021;-68
2024/01/24 10:11:27;;;;;;;14.77;2.42;;;13.20;67.40;;;;;;5037894;28;20029;-68
2024/01/24 10:13:59;;;;;;;11.52;3.15;;;13.30;67.60;;;;;;5042117;28;20021;-68
2024/01/24 10:16:25;;;;;;;;;;;13.30;67.20;;;;;;5030423;28;20369;-71
2024/01/24 10:18:57;;;;;;;7.90;2.45;;;13.40;67.10;;;;;;5031221;28;19913;-71
2024/01/24 10:21:24;;;;;;;11.35;3.92;;;13.40;67.10;;;;;;5027052;28;20112;-71
2024/01/24 10:23:55;;;;;;;7.00;2.42;;;13.40;67.00;;;;;;5030416;28;20276;-71
2024/01/24 10:26:20;;;;;;;9.30;2.95;;;13.50;66.70;;;;;;5034345;28;20029;-69
2024/01/24 10:28:47;;;;;;;10.23;3.45;;;13.60;66.70;;;;;;5026151;28;20041;-69
2024/01/24 10:31:12;;;;;;;8.50;2.88;;;13.70;66.40;;;;;;5028918;28;20397;-69
2024/01/24 10:33:39;;;;;;;9.63;2.08;;;13.80;66.10;;;;;;5035711;28;20029;-66
2024/01/24 10:36:08;;;;;;;15.35;3.17;;;13.80;66.00;;;;;;5032640;28;20571;-66
2024/01/24 10:38:39;;;;;;;8.38;2.25;;;13.80;65.70;;;;;;5026096;28;20045;-67
2024/01/24 10:41:11;;;;;;;7.28;3.47;;;13.80;65.90;;;;;;5025172;28;20153;-67
2024/01/24 10:43:45;;;;;;;19.13;3.10;;;13.90;65.80;;;;;;5029752;28;20108;-70
2024/01/24 10:46:11;;;;;;;14.02;2.50;;;13.90;65.40;;;;;;5029562;28;20052;-69
2024/01/24 10:48:38;;;;;;;6.47;2.50;;;13.90;65.90;;;;;;5036488;28;20464;-69
2024/01/24 10:51:04;;;;;;;9.13;2.75;;;14.00;65.60;;;;;;5038746;28;20026;-69
2024/01/24 10:53:31;;;;;;;10.35;2.13;;;14.10;65.20;;;;;;5023190;28;20029;-69
2024/01/24 10:55:59;;;;;;;5.00;2.33;;;14.20;64.90;;;;;;5023659;28;20025;-69
2024/01/24 10:58:28;;;;;;;9.10;3.22;;;14.30;64.60;;;;;;5031387;28;20045;-69
2024/01/24 11:00:55;;;;;;;12.98;3.45;;;14.20;64.40;;;;;;5061738;28;20044;-70
2024/01/24 11:03:21;;;;;;;13.50;3.45;;;14.40;63.90;;;;;;5027787;28;20022;-69
2024/01/24 11:05:55;;;;;;;12.35;3.42;;;14.80;63.20;;;;;;5033103;28;20102;-70
2024/01/24 11:08:27;;;;;;;16.50;4.10;;;15.10;62.20;;;;;;5030156;28;20096;-70
2024/01/24 11:10:57;;;;;;;10.27;2.75;;;15.20;61.90;;;;;;5026990;28;20028;-70
2024/01/24 11:13:26;;;;;;;10.80;2.70;;;15.00;62.30;;;;;;5028371;28;20033;-71
2024/01/24 11:15:54;;;;;;;11.85;3.28;;;15.00;62.60;;;;;;5031556;28;20040;-71
2024/01/24 11:18:24;;;;;;;11.05;3.05;;;15.10;62.80;;;;;;5032707;28;20108;-70
2024/01/24 11:20:58;;;;;;;6.72;3.22;;;15.60;61.50;;;;;;5043442;28;20033;-67
2024/01/24 11:23:43;;;;;;;11.23;2.53;;;15.90;59.80;;;;;;5039759;28;20122;-68
2024/01/24 11:26:19;;;;;;;11.52;4.70;;;15.80;59.90;;;;;;5036167;28;20028;-68
2024/01/24 11:28:46;;;;;;;13.02;3.03;;;15.50;60.60;;;;;;5034241;28;20032;-67
2024/01/24 11:31:13;;;;;;;6.45;2.75;;;15.60;60.80;;;;;;5010595;28;20026;-70
2024/01/24 11:34:11;;;;;;;12.55;2.85;;;15.90;60.70;;;;;;5028064;28;20214;-71
2024/01/24 11:36:55;;;;;;;8.75;2.35;;;16.40;59.70;;;;;;5027464;28;20037;-70
2024/01/24 11:39:34;;;;;;;11.10;2.35;;;16.40;59.20;;;;;;5027551;28;20035;-70
2024/01/24 11:42:30;;;;;;;8.35;1.90;;;16.80;58.40;;;;;;5030518;28;20382;-70
2024/01/24 11:45:28;;;;;;;9.82;2.85;;;16.70;57.60;;;;;;5029399;28;20018;-71
2024/01/24 11:47:54;;;;;;;7.15;3.20;;;16.70;58.60;;;;;;5019236;28;20050;-70
2024/01/24 11:50:20;;;;;;;15.38;3.10;;;16.60;57.70;;;;;;5026140;28;20022;-70
2024/01/24 11:52:46;;;;;;;6.40;2.75;;;16.30;58.50;;;;;;5030022;28;20032;-70
2024/01/24 11:55:12;;;;;;;11.13;3.65;;;16.30;59.30;;;;;;5031985;28;20029;-70
2024/01/24 11:57:38;;;;;;;6.05;2.80;;;16.70;58.40;;;;;;5030438;28;20029;-70
2024/01/24 12:00:08;;;;;;;10.68;2.22;;;16.60;57.80;;;;;;5036621;28;20036;-67
2024/01/24 12:02:35;;;;;;;8.95;3.20;;;16.30;57.90;;;;;;5034998;28;20037;-68
2024/01/24 12:05:01;;;;;;;11.70;2.85;;;16.00;58.90;;;;;;5038692;28;20036;-68
2024/01/24 12:07:27;;;;;;;7.90;2.17;;;16.00;58.70;;;;;;5043594;28;20030;-68
2024/01/24 12:09:53;;;;;;;7.72;2.40;;;16.00;58.60;;;;;;5035709;28;20052;-68
2024/01/24 12:12:20;;;;;;;12.07;2.83;;;16.00;58.40;;;;;;5041658;28;20029;-67
2024/01/24 12:14:46;;;;;;;14.55;2.92;;;15.80;58.90;;;;;;5041661;28;20048;-68
2024/01/24 12:17:12;;;;;;;9.55;2.60;;;15.70;59.30;;;;;;5047448;28;20116;-68
2024/01/24 12:19:42;;;;;;;6.75;2.13;;;15.40;59.10;;;;;;5045131;28;20440;-68
2024/01/24 12:22:09;;;;;;;9.88;2.75;;;15.10;60.20;;;;;;5045985;28;20025;-67
2024/01/24 12:24:40;;;;;;;9.07;2.08;;;14.90;60.60;;;;;;5009352;28;20041;-67
2024/01/24 12:27:08;;;;;;;7.53;1.98;;;14.60;61.10;;;;;;5040178;28;20025;-67
2024/01/24 12:29:34;;;;;;;10.63;2.53;;;14.40;61.30;;;;;;5045756;28;20033;-67
2024/01/24 12:32:01;;;;;;;10.02;3.03;;;14.20;62.00;;;;;;5035012;28;20136;-68
2024/01/24 12:34:29;;;;;;;6.97;2.38;;;14.10;61.80;;;;;;5038953;28;20091;-67
2024/01/24 12:37:00;;;;;;;4.93;2.40;;;14.00;62.40;;;;;;5073017;28;20040;-67
2024/01/24 12:39:27;;;;;;;10.32;2.25;;;14.00;62.40;;;;;;5034815;28;20112;-68
2024/01/24 12:41:53;;;;;;;21.33;2.92;;;13.90;62.80;;;;;;5030962;28;20152;-70